createdAt,value
2022-08-27T00:01:25.565Z,98650.28
2022-08-27T00:03:56.582Z,98642.28
2022-08-27T00:06:25.418Z,98635.94
2022-08-27T00:08:53.687Z,98638.00
2022-08-27T00:11:22.396Z,98642.84
2022-08-27T00:13:50.316Z,98635.69
2022-08-27T00:16:17.959Z,98643.28
2022-08-27T00:18:48.417Z,98640.50
2022-08-27T00:21:17.786Z,98648.97
2022-08-27T00:23:45.321Z,98643.03
2022-08-27T00:26:15.035Z,98648.69
2022-08-27T00:28:43.308Z,98653.53
2022-08-27T00:31:12.334Z,98656.75
2022-08-27T00:33:41.518Z,98666.00
2022-08-27T00:36:08.840Z,98666.84
2022-08-27T00:38:38.573Z,98658.44
2022-08-27T00:41:08.835Z,98659.25
2022-08-27T00:43:56.130Z,98668.88
2022-08-27T00:46:44.814Z,98671.31
2022-08-27T00:49:21.333Z,98664.88
2022-08-27T00:51:57.754Z,98673.75
2022-08-27T00:54:26.532Z,98677.72
2022-08-27T00:56:54.894Z,98680.91
2022-08-27T00:59:25.427Z,98676.47
2022-08-27T01:02:12.930Z,98663.31
2022-08-27T01:04:42.854Z,98668.13
2022-08-27T01:07:12.124Z,98674.56
2022-08-27T01:09:39.584Z,98668.97
2022-08-27T01:12:08.104Z,98664.56
2022-08-27T01:14:39.458Z,98672.94
2022-08-27T01:17:09.434Z,98675.38
2022-08-27T01:19:42.918Z,98671.28
2022-08-27T01:22:42.489Z,98654.44
2022-08-27T01:25:16.260Z,98650.09
2022-08-27T01:27:45.829Z,98598.41
2022-08-27T01:30:15.986Z,98668.94
2022-08-27T01:32:44.224Z,98660.19
2022-08-27T01:35:14.586Z,98658.59
2022-08-27T01:37:44.626Z,98659.84
2022-08-27T01:40:13.383Z,98667.44
2022-08-27T01:42:44.673Z,98674.25
2022-08-27T01:45:20.317Z,98667.44
2022-08-27T01:47:48.059Z,98647.91
2022-08-27T01:50:19.510Z,98671.47
2022-08-27T01:52:46.984Z,98665.13
2022-08-27T01:55:17.420Z,98669.13
2022-08-27T01:57:45.683Z,98624.09
2022-08-27T02:00:25.111Z,98671.59
2022-08-27T02:02:52.372Z,98657.63
2022-08-27T02:05:19.787Z,98669.22
2022-08-27T02:07:47.418Z,98666.03
2022-08-27T02:10:18.173Z,98663.56
2022-08-27T02:12:46.186Z,98669.22
2022-08-27T02:15:15.427Z,98669.22
2022-08-27T02:17:42.995Z,98648.84
2022-08-27T02:20:11.224Z,98654.47
2022-08-27T02:22:39.003Z,98649.28
2022-08-27T02:25:10.304Z,98661.72
2022-08-27T02:27:42.952Z,98654.50
2022-08-27T02:30:13.724Z,98663.31
2022-08-27T02:32:41.183Z,98670.53
2022-08-27T02:35:09.265Z,98670.94
2022-08-27T02:37:38.010Z,98674.13
2022-08-27T02:40:07.667Z,98657.75
2022-08-27T02:42:35.217Z,98670.94
2022-08-27T02:45:02.722Z,98669.75
2022-08-27T02:47:30.530Z,98665.75
2022-08-27T02:49:57.808Z,98661.38
2022-08-27T02:52:27.272Z,98668.56
2022-08-27T02:54:54.502Z,98662.19
2022-08-27T02:57:22.554Z,98655.41
2022-08-27T02:59:51.257Z,98667.78
2022-08-27T03:02:19.330Z,98662.63
2022-08-27T03:04:46.988Z,98667.81
2022-08-27T03:07:19.067Z,98660.66
2022-08-27T03:09:46.405Z,98665.06
2022-08-27T03:12:13.804Z,98665.06
2022-08-27T03:14:40.886Z,98666.66
2022-08-27T03:17:26.958Z,98661.50
2022-08-27T03:19:55.640Z,98664.31
2022-08-27T03:22:22.862Z,98671.91
2022-08-27T03:24:50.376Z,98663.94
2022-08-27T03:27:17.546Z,98677.53
2022-08-27T03:29:44.718Z,98665.16
2022-08-27T03:32:12.078Z,98680.72
2022-08-27T03:34:39.257Z,98678.72
2022-08-27T03:37:06.722Z,98662.72
2022-08-27T03:39:34.017Z,98680.34
2022-08-27T03:42:01.377Z,98686.72
2022-08-27T03:44:28.656Z,98672.31
2022-08-27T03:46:56.099Z,98695.13
2022-08-27T03:49:24.325Z,98693.53
2022-08-27T03:51:53.138Z,98697.13
2022-08-27T03:54:20.760Z,98693.53
2022-08-27T03:56:48.280Z,98699.13
2022-08-27T03:59:16.135Z,98706.72
2022-08-27T04:01:44.866Z,98703.13
2022-08-27T04:04:13.279Z,98696.72
2022-08-27T04:06:41.500Z,98706.69
2022-08-27T04:09:08.961Z,98716.63
2022-08-27T04:11:36.670Z,98715.44
2022-08-27T04:14:14.524Z,98718.19
2022-08-27T04:16:55.004Z,98706.19
2022-08-27T04:19:26.865Z,98713.41
2022-08-27T04:22:02.481Z,98716.59
2022-08-27T04:24:32.356Z,98712.63
2022-08-27T04:27:01.706Z,98719.81
2022-08-27T04:29:29.820Z,98709.81
2022-08-27T04:31:57.847Z,98717.38
2022-08-27T04:34:25.166Z,98714.13
2022-08-27T04:36:57.049Z,98713.31
2022-08-27T04:39:25.704Z,98719.34
2022-08-27T04:41:56.336Z,98710.56
2022-08-27T04:44:25.586Z,98729.75
2022-08-27T04:46:57.642Z,98709.34
2022-08-27T04:49:27.067Z,98732.94
2022-08-27T04:51:54.961Z,98737.34
2022-08-27T04:54:32.183Z,98730.53
2022-08-27T04:57:00.088Z,98739.72
2022-08-27T04:59:27.310Z,98740.50
2022-08-27T05:01:54.605Z,98744.47
2022-08-27T05:04:22.255Z,98755.63
2022-08-27T05:06:50.773Z,98750.78
2022-08-27T05:09:22.141Z,98737.19
2022-08-27T05:11:54.070Z,98741.94
2022-08-27T05:14:22.389Z,98742.66
2022-08-27T05:16:50.006Z,98746.63
2022-08-27T05:19:17.465Z,98746.59
2022-08-27T05:21:47.960Z,98742.94
2022-08-27T05:24:16.513Z,98754.53
2022-08-27T05:26:44.704Z,98748.91
2022-08-27T05:29:14.924Z,98753.28
2022-08-27T05:31:43.481Z,98755.19
2022-08-27T05:34:18.923Z,98755.03
2022-08-27T05:36:53.142Z,98744.56
2022-08-27T05:39:20.497Z,98758.50
2022-08-27T05:41:47.573Z,98761.31
2022-08-27T05:44:40.080Z,98750.06
2022-08-27T05:47:04.315Z,98761.63
2022-08-27T05:49:31.867Z,98755.56
2022-08-27T05:52:00.077Z,98759.53
2022-08-27T05:54:27.983Z,98762.66
2022-08-27T05:56:55.101Z,98764.25
2022-08-27T05:59:44.427Z,98766.50
2022-08-27T06:02:12.702Z,98766.44
2022-08-27T06:04:39.995Z,98754.44
2022-08-27T06:07:09.427Z,98775.88
2022-08-27T06:09:38.707Z,98782.16
2022-08-27T06:12:06.349Z,98774.88
2022-08-27T06:14:35.247Z,98784.00
2022-08-27T06:17:03.127Z,98785.94
2022-08-27T06:19:30.368Z,98781.69
2022-08-27T06:22:09.910Z,98791.13
2022-08-27T06:24:42.527Z,98778.22
2022-08-27T06:27:17.034Z,98793.28
2022-08-27T06:29:45.217Z,98789.13
2022-08-27T06:32:14.769Z,98789.72
2022-08-27T06:34:42.104Z,98795.03
2022-08-27T06:37:09.506Z,98791.69
2022-08-27T06:39:39.432Z,98794.38
2022-08-27T06:42:12.190Z,98796.34
2022-08-27T06:44:40.268Z,98795.13
2022-08-27T06:47:07.535Z,98799.81
2022-08-27T06:49:34.773Z,98804.44
2022-08-27T06:52:02.866Z,98802.59
2022-08-27T06:54:34.022Z,98801.38
2022-08-27T06:57:01.409Z,98809.13
2022-08-27T06:59:28.631Z,98802.53
2022-08-27T07:01:56.348Z,98803.13
2022-08-27T07:04:32.034Z,98805.34
2022-08-27T07:07:02.349Z,98796.72
2022-08-27T07:09:32.225Z,98810.75
2022-08-27T07:12:00.181Z,98810.25
2022-08-27T07:14:28.226Z,98820.16
2022-08-27T07:16:55.699Z,98804.75
2022-08-27T07:19:23.253Z,98811.28
2022-08-27T07:21:50.955Z,98805.13
2022-08-27T07:24:19.233Z,98813.00
2022-08-27T07:26:46.922Z,98816.13
2022-08-27T07:29:15.529Z,98819.78
2022-08-27T07:31:43.826Z,98823.06
2022-08-27T07:34:11.707Z,98806.47
2022-08-27T07:36:39.627Z,98820.69
2022-08-27T07:39:08.054Z,98812.09
2022-08-27T07:41:59.064Z,98813.06
2022-08-27T07:44:30.951Z,98813.38
2022-08-27T07:47:02.534Z,98819.91
2022-08-27T07:49:31.895Z,98813.19
2022-08-27T07:51:59.596Z,98805.84
2022-08-27T07:54:26.756Z,98812.00
2022-08-27T07:56:56.118Z,98816.47
2022-08-27T07:59:26.053Z,98812.22
2022-08-27T08:01:55.294Z,98822.78
2022-08-27T08:04:23.092Z,98822.44
2022-08-27T08:06:51.389Z,98819.06
2022-08-27T08:09:19.120Z,98824.63
2022-08-27T08:11:46.705Z,98818.88
2022-08-27T08:14:14.189Z,98822.94
2022-08-27T08:16:41.639Z,98822.28
2022-08-27T08:19:09.419Z,98813.34
2022-08-27T08:21:38.597Z,98818.09
2022-08-27T08:24:06.423Z,98814.38
2022-08-27T08:26:34.250Z,98808.03
2022-08-27T08:29:04.963Z,98820.16
2022-08-27T08:31:32.561Z,98815.19
2022-08-27T08:33:59.814Z,98809.88
2022-08-27T08:36:27.209Z,98815.94
2022-08-27T08:38:55.067Z,98824.00
2022-08-27T08:41:28.389Z,98827.16
2022-08-27T08:44:05.337Z,98816.16
2022-08-27T08:47:12.560Z,98822.75
2022-08-27T08:50:10.925Z,98821.28
2022-08-27T08:52:55.785Z,98811.19
2022-08-27T08:55:32.495Z,98821.06
2022-08-27T08:58:37.478Z,98818.13
2022-08-27T09:01:08.334Z,98819.47
2022-08-27T09:03:42.275Z,98811.09
2022-08-27T09:06:32.644Z,98812.44
2022-08-27T09:09:09.417Z,98820.38
2022-08-27T09:11:51.192Z,98801.91
2022-08-27T09:14:34.388Z,98812.09
2022-08-27T09:17:02.914Z,98803.22
2022-08-27T09:19:38.391Z,98810.56
2022-08-27T09:22:21.237Z,98815.19
2022-08-27T09:25:00.586Z,98807.56
2022-08-27T09:27:28.435Z,98805.06
2022-08-27T09:29:56.946Z,98811.63
2022-08-27T09:32:32.979Z,98807.16
2022-08-27T09:35:03.574Z,98804.00
2022-08-27T09:37:42.009Z,98803.66
2022-08-27T09:40:23.030Z,98803.41
2022-08-27T09:42:53.537Z,98799.91
2022-08-27T09:45:24.874Z,98795.88
2022-08-27T09:48:07.659Z,98805.41
2022-08-27T09:50:43.909Z,98799.50
2022-08-27T09:53:27.296Z,98786.69
2022-08-27T09:55:57.887Z,98777.53
2022-08-27T09:58:33.351Z,98785.06
2022-08-27T10:01:03.658Z,98791.59
2022-08-27T10:03:33.587Z,98794.88
2022-08-27T10:06:01.477Z,98788.75
2022-08-27T10:08:49.417Z,98789.25
2022-08-27T10:11:22.593Z,98791.50
2022-08-27T10:14:17.990Z,98786.81
2022-08-27T10:17:07.085Z,98788.56
2022-08-27T10:20:01.363Z,98789.88
2022-08-27T10:22:33.669Z,98801.63
2022-08-27T10:25:13.434Z,98789.75
2022-08-27T10:28:39.331Z,98791.31
2022-08-27T10:31:18.971Z,98798.44
2022-08-27T10:33:49.570Z,98790.75
2022-08-27T10:36:23.260Z,98791.75
2022-08-27T10:39:05.335Z,98778.84
2022-08-27T10:41:40.251Z,98786.84
2022-08-27T10:44:46.351Z,98790.28
2022-08-27T10:47:28.403Z,98785.88
2022-08-27T10:50:17.696Z,98784.38
2022-08-27T10:53:01.860Z,98775.06
2022-08-27T10:55:52.415Z,98780.97
2022-08-27T10:58:39.879Z,98773.25
2022-08-27T11:01:13.166Z,98775.47
2022-08-27T11:03:44.226Z,98772.78
2022-08-27T11:06:45.326Z,98757.59
2022-08-27T11:09:19.640Z,98771.44
2022-08-27T11:12:13.798Z,98771.97
2022-08-27T11:14:53.106Z,98767.25
2022-08-27T11:17:45.926Z,98772.28
2022-08-27T11:20:22.263Z,98773.72
2022-08-27T11:23:18.569Z,98766.59
2022-08-27T11:26:02.262Z,98754.44
2022-08-27T11:28:41.771Z,98770.38
2022-08-27T11:31:33.107Z,98771.97
2022-08-27T11:34:25.719Z,98759.97
2022-08-27T11:37:21.958Z,98761.88
2022-08-27T11:39:57.708Z,98765.31
2022-08-27T11:42:48.370Z,98766.91
2022-08-27T11:45:24.621Z,98757.09
2022-08-27T11:47:58.838Z,98759.16
2022-08-27T11:50:27.752Z,98757.59
2022-08-27T11:53:08.541Z,98758.06
2022-08-27T11:55:38.791Z,98755.69
2022-08-27T11:58:27.057Z,98767.41
2022-08-27T12:00:55.062Z,98761.72
2022-08-27T12:03:22.376Z,98748.91
2022-08-27T12:06:09.727Z,98755.72
2022-08-27T12:08:38.543Z,98751.59
2022-08-27T12:11:21.519Z,98746.03
2022-08-27T12:13:51.754Z,98754.25
2022-08-27T12:16:38.476Z,98738.47
2022-08-27T12:19:15.979Z,98745.25
2022-08-27T12:22:06.579Z,98736.06
2022-08-27T12:24:56.059Z,98731.47
2022-08-27T12:27:32.425Z,98735.25
2022-08-27T12:30:20.386Z,98708.41
2022-08-27T12:32:53.578Z,98738.47
2022-08-27T12:35:26.706Z,98732.75
2022-08-27T12:38:05.035Z,98739.91
2022-08-27T12:40:42.422Z,98742.56
2022-08-27T12:43:25.464Z,98745.69
2022-08-27T12:46:14.546Z,98739.16
2022-08-27T12:48:51.593Z,98742.16
2022-08-27T12:51:32.349Z,98747.81
2022-08-27T12:54:19.926Z,98740.59
2022-08-27T12:57:25.666Z,98743.75
2022-08-27T13:00:11.115Z,98729.88
2022-08-27T13:03:03.405Z,98725.03
2022-08-27T13:05:50.369Z,98728.00
2022-08-27T13:08:48.010Z,98721.69
2022-08-27T13:11:22.150Z,98728.19
2022-08-27T13:13:50.889Z,98728.16
2022-08-27T13:16:20.905Z,98722.97
2022-08-27T13:18:52.588Z,98713.81
2022-08-27T13:21:28.073Z,98723.56
2022-08-27T13:23:59.204Z,98717.53
2022-08-27T13:26:29.643Z,98731.72
2022-08-27T13:29:03.235Z,98724.00
2022-08-27T13:31:32.961Z,98724.47
2022-08-27T13:34:01.495Z,98728.41
2022-08-27T13:36:35.204Z,98737.75
2022-08-27T13:39:05.230Z,98698.56
2022-08-27T13:41:35.473Z,98721.53
2022-08-27T13:44:12.453Z,98713.34
2022-08-27T13:47:23.474Z,98714.59
2022-08-27T13:50:00.892Z,98717.56
2022-08-27T13:52:33.025Z,98717.91
2022-08-27T13:55:06.497Z,98717.56
2022-08-27T13:57:48.903Z,98710.88
2022-08-27T14:00:26.976Z,98713.50
2022-08-27T14:02:55.806Z,98723.78
2022-08-27T14:05:23.924Z,98719.94
2022-08-27T14:08:00.578Z,98725.00
2022-08-27T14:10:36.793Z,98721.81
2022-08-27T14:13:08.561Z,98719.44
2022-08-27T14:15:42.194Z,98717.06
2022-08-27T14:18:48.427Z,98719.94
2022-08-27T14:21:18.628Z,98718.50
2022-08-27T14:23:46.181Z,98723.38
2022-08-27T14:26:15.229Z,98710.56
2022-08-27T14:28:45.565Z,98708.66
2022-08-27T14:31:14.318Z,98724.38
2022-08-27T14:33:41.846Z,98727.09
2022-08-27T14:36:09.958Z,98723.41
2022-08-27T14:38:42.370Z,98727.38
2022-08-27T14:41:09.887Z,98730.47
2022-08-27T14:43:38.232Z,98731.63
2022-08-27T14:46:10.684Z,98728.84
2022-08-27T14:48:43.412Z,98726.31
2022-08-27T14:51:25.235Z,98722.75
2022-08-27T14:53:53.269Z,98725.44
2022-08-27T14:56:22.448Z,98729.38
2022-08-27T14:58:50.735Z,98738.56
2022-08-27T15:01:20.888Z,98725.16
2022-08-27T15:03:50.852Z,98729.41
2022-08-27T15:06:22.064Z,98721.03
2022-08-27T15:08:52.175Z,98726.06
2022-08-27T15:11:25.502Z,98730.22
2022-08-27T15:13:54.392Z,98731.63
2022-08-27T15:16:29.546Z,98728.94
2022-08-27T15:19:00.812Z,98728.16
2022-08-27T15:21:30.714Z,98720.41
2022-08-27T15:24:03.268Z,98729.44
2022-08-27T15:26:33.327Z,98714.72
2022-08-27T15:29:06.563Z,98720.56
2022-08-27T15:31:34.584Z,98720.72
2022-08-27T15:34:02.329Z,98736.09
2022-08-27T15:36:29.995Z,98728.66
2022-08-27T15:38:57.420Z,98730.38
2022-08-27T15:41:28.664Z,98729.28
2022-08-27T15:43:58.085Z,98739.88
2022-08-27T15:46:26.376Z,98734.16
2022-08-27T15:48:54.136Z,98734.97
2022-08-27T15:51:27.660Z,98741.13
2022-08-27T15:53:56.263Z,98741.97
2022-08-27T15:56:24.259Z,98743.84
2022-08-27T15:58:52.433Z,98740.38
2022-08-27T16:01:32.176Z,98741.00
2022-08-27T16:04:02.972Z,98718.06
2022-08-27T16:06:31.134Z,98733.25
2022-08-27T16:08:58.626Z,98740.03
2022-08-27T16:11:26.161Z,98740.63
2022-08-27T16:13:55.596Z,98743.28
2022-08-27T16:16:30.820Z,98745.31
2022-08-27T16:19:01.341Z,98747.06
2022-08-27T16:21:29.556Z,98753.50
2022-08-27T16:23:57.264Z,98756.63
2022-08-27T16:26:24.861Z,98746.84
2022-08-27T16:28:52.071Z,98750.28
2022-08-27T16:31:19.698Z,98749.59
2022-08-27T16:33:47.256Z,98762.16
2022-08-27T16:36:14.850Z,98773.34
2022-08-27T16:38:42.317Z,98768.41
2022-08-27T16:41:09.815Z,98758.25
2022-08-27T16:43:38.702Z,98760.88
2022-08-27T16:46:06.839Z,98769.31
2022-08-27T16:49:01.541Z,98767.38
2022-08-27T16:52:28.083Z,98766.44
2022-08-27T16:54:57.019Z,98767.84
2022-08-27T16:57:24.682Z,98767.88
2022-08-27T16:59:51.978Z,98763.19
2022-08-27T17:02:30.717Z,98758.59
2022-08-27T17:05:12.259Z,98769.47
2022-08-27T17:07:48.792Z,98777.63
2022-08-27T17:10:18.443Z,98745.50
2022-08-27T17:12:48.082Z,98774.34
2022-08-27T17:15:18.779Z,98778.09
2022-08-27T17:17:46.372Z,98777.03
2022-08-27T17:20:15.190Z,98771.00
2022-08-27T17:22:43.486Z,98783.66
2022-08-27T17:25:11.531Z,98787.94
2022-08-27T17:27:38.826Z,98785.19
2022-08-27T17:30:07.587Z,98787.31
2022-08-27T17:32:40.038Z,98792.81
2022-08-27T17:35:08.603Z,98791.84
2022-08-27T17:37:36.196Z,98800.88
2022-08-27T17:40:05.137Z,98802.31
2022-08-27T17:42:32.832Z,98799.22
2022-08-27T17:45:00.316Z,98808.69
2022-08-27T17:47:27.995Z,98808.50
2022-08-27T17:49:55.125Z,98814.69
2022-08-27T17:52:23.226Z,98824.56
2022-08-27T17:54:54.249Z,98821.94
2022-08-27T17:57:26.277Z,98836.13
2022-08-27T17:59:54.976Z,98832.59
2022-08-27T18:02:27.863Z,98833.19
2022-08-27T18:04:55.778Z,98840.22
2022-08-27T18:07:23.469Z,98837.19
2022-08-27T18:09:51.363Z,98843.78
2022-08-27T18:12:24.040Z,98840.91
2022-08-27T18:15:03.526Z,98851.50
2022-08-27T18:17:32.302Z,98850.34
2022-08-27T18:19:59.896Z,98856.84
2022-08-27T18:22:27.947Z,98867.03
2022-08-27T18:25:02.973Z,98867.53
2022-08-27T18:27:34.055Z,98866.53
2022-08-27T18:30:02.331Z,98872.31
2022-08-27T18:32:31.048Z,98859.47
2022-08-27T18:35:03.286Z,98858.81
2022-08-27T18:37:31.271Z,98865.31
2022-08-27T18:39:58.495Z,98869.41
2022-08-27T18:42:25.801Z,98866.88
2022-08-27T18:44:53.060Z,98870.47
2022-08-27T18:47:20.452Z,98871.34
2022-08-27T18:49:47.862Z,98865.84
2022-08-27T18:52:15.290Z,98869.53
2022-08-27T18:54:43.133Z,98869.09
2022-08-27T18:57:10.360Z,98870.81
2022-08-27T18:59:37.527Z,98874.16
2022-08-27T19:02:22.530Z,98875.06
2022-08-27T19:04:52.542Z,98880.06
2022-08-27T19:07:21.086Z,98879.75
2022-08-27T19:09:50.569Z,98890.75
2022-08-27T19:12:17.824Z,98884.78
2022-08-27T19:14:47.823Z,98889.25
2022-08-27T19:17:36.051Z,98886.66
2022-08-27T19:20:04.897Z,98890.91
2022-08-27T19:22:32.657Z,98891.78
2022-08-27T19:25:00.149Z,98887.41
2022-08-27T19:27:30.105Z,98898.00
2022-08-27T19:29:57.618Z,98901.31
2022-08-27T19:32:24.915Z,98893.41
2022-08-27T19:34:53.086Z,98905.91
2022-08-27T19:37:26.608Z,98898.81
2022-08-27T19:39:54.006Z,98898.38
2022-08-27T19:42:21.583Z,98906.34
2022-08-27T19:44:51.895Z,98915.63
2022-08-27T19:47:25.926Z,98919.28
2022-08-27T19:49:53.856Z,98909.50
2022-08-27T19:52:21.279Z,98906.41
2022-08-27T19:55:10.214Z,98919.38
2022-08-27T19:57:36.459Z,98917.03
2022-08-27T20:00:05.485Z,98919.50
2022-08-27T20:02:37.199Z,98912.75
2022-08-27T20:05:21.112Z,98927.56
2022-08-27T20:07:53.636Z,98923.53
2022-08-27T20:10:31.622Z,98924.00
2022-08-27T20:13:04.083Z,98921.56
2022-08-27T20:15:31.455Z,98918.78
2022-08-27T20:17:59.777Z,98916.81
2022-08-27T20:20:28.961Z,98910.88
2022-08-27T20:22:59.447Z,98928.47
2022-08-27T20:25:26.791Z,98929.34
2022-08-27T20:27:55.288Z,98922.97
2022-08-27T20:30:25.644Z,98921.44
2022-08-27T20:32:53.294Z,98927.88
2022-08-27T20:35:22.170Z,98907.53
2022-08-27T20:37:50.018Z,98917.19
2022-08-27T20:40:21.621Z,98921.63
2022-08-27T20:42:50.507Z,98920.03
2022-08-27T20:45:18.848Z,98930.91
2022-08-27T20:47:48.810Z,98932.16
2022-08-27T20:50:17.993Z,98936.19
2022-08-27T20:52:45.877Z,98939.44
2022-08-27T20:55:14.344Z,98940.66
2022-08-27T20:58:04.413Z,98937.44
2022-08-27T21:00:35.542Z,98892.75
2022-08-27T21:03:03.043Z,98936.28
2022-08-27T21:05:34.435Z,98941.91
2022-08-27T21:08:04.053Z,98932.72
2022-08-27T21:10:31.569Z,98927.50
2022-08-27T21:13:02.206Z,98915.13
2022-08-27T21:15:31.723Z,98934.31
2022-08-27T21:17:59.070Z,98933.91
2022-08-27T21:20:26.816Z,98924.72
2022-08-27T21:22:56.148Z,98932.72
2022-08-27T21:25:25.430Z,98934.31
2022-08-27T21:27:53.894Z,98932.31
2022-08-27T21:30:21.767Z,98945.56
2022-08-27T21:32:49.199Z,98930.03
2022-08-27T21:35:16.493Z,98939.69
2022-08-27T21:37:44.399Z,98944.09
2022-08-27T21:40:12.023Z,98944.53
2022-08-27T21:42:39.319Z,98934.13
2022-08-27T21:45:06.901Z,98948.16
2022-08-27T21:47:34.758Z,98950.97
2022-08-27T21:50:02.909Z,98934.94
2022-08-27T21:52:31.595Z,98942.97
2022-08-27T21:54:58.666Z,98944.59
2022-08-27T21:57:26.153Z,98937.41
2022-08-27T21:59:53.425Z,98950.19
2022-08-27T22:02:39.926Z,98954.63
2022-08-27T22:05:09.447Z,98943.81
2022-08-27T22:07:37.118Z,98940.59
2022-08-27T22:10:06.346Z,98939.81
2022-08-27T22:12:33.666Z,98938.22
2022-08-27T22:15:00.861Z,98936.19
2022-08-27T22:17:28.148Z,98935.78
2022-08-27T22:19:55.261Z,98943.41
2022-08-27T22:22:22.382Z,98921.03
2022-08-27T22:24:49.943Z,98931.03
2022-08-27T22:27:19.675Z,98934.66
2022-08-27T22:29:46.778Z,98933.44
2022-08-27T22:32:14.076Z,98925.84
2022-08-27T22:34:41.083Z,98924.25
2022-08-27T22:37:08.343Z,98922.22
2022-08-27T22:39:35.831Z,98923.03
2022-08-27T22:42:03.401Z,98918.22
2022-08-27T22:44:30.919Z,98924.63
2022-08-27T22:46:58.839Z,98919.81
2022-08-27T22:49:26.912Z,98907.81
2022-08-27T22:51:54.250Z,98902.22
2022-08-27T22:54:21.355Z,98908.22
2022-08-27T22:56:48.755Z,98891.81
2022-08-27T22:59:16.112Z,98918.22
2022-08-27T23:01:43.633Z,98919.41
2022-08-27T23:04:11.375Z,98912.22
2022-08-27T23:06:38.891Z,98914.22
2022-08-27T23:09:06.165Z,98920.19
2022-08-27T23:11:35.553Z,98914.22
2022-08-27T23:14:03.098Z,98917.44
2022-08-27T23:16:31.910Z,98913.03
2022-08-27T23:18:59.089Z,98915.81
2022-08-27T23:21:26.420Z,98927.03
2022-08-27T23:23:53.607Z,98924.63
2022-08-27T23:26:39.992Z,98931.03
2022-08-27T23:29:07.555Z,98919.00
2022-08-27T23:31:34.827Z,98937.41
2022-08-27T23:34:02.088Z,98921.81
2022-08-27T23:36:31.358Z,98924.19
2022-08-27T23:38:58.599Z,98925.41
2022-08-27T23:41:26.474Z,98934.97
2022-08-27T23:43:54.417Z,98938.56
2022-08-27T23:46:21.658Z,98922.53
2022-08-27T23:48:48.798Z,98926.97
2022-08-27T23:51:16.119Z,98920.53
2022-08-27T23:53:43.292Z,98922.97
2022-08-27T23:56:11.077Z,98931.72
2022-08-27T23:58:38.480Z,98931.69
